Terminal Aerodrome Forecast
Issued by NWS Wilmington, OH

Home | Current Version | Previous Version | Text Only | Print | Product List | Glossary On
Versions: 1 2 3 4 5 6 7 8 9 10 11 12 13 14 15 16 17
000
FTUS41 KILN 100531
TAFCMH
TAF
KCMH 100531Z 1006/1106 28009KT P6SM OVC045
     FM100900 27005KT P6SM BKN025 OVC040
     FM101400 25008KT P6SM BKN080
     FM102300 VRB03KT P6SM BKN080=

USA.gov is the U.S. government's official web portal to all federal, state and local government web resources and services.